Time;durP1;ratioP1;P1;durP2;ratioP2;P2;SDS_P1;SDS_P2;PMS_P1;PMS_P2;Temp;Humidity;BMP_temperature;BMP_pressure;BME280_temperature;BME280_humidity;BME280_pressure;Samples;Min_cycle;Max_cycle;Signal;HPM_P1;HPM_P2
2023/12/14 00:02:02;;;;;;;37.07;18.90;;;;;;;5.07;88.27;96227.97;4909678;29;20318;-73
2023/12/14 00:04:29;;;;;;;41.63;20.43;;;;;;;5.25;87.11;96229.84;4910695;29;20215;-74
2023/12/14 00:06:56;;;;;;;38.17;21.10;;;;;;;5.18;87.39;96229.22;4910760;29;20653;-72
2023/12/14 00:09:23;;;;;;;40.50;20.77;;;;;;;5.10;86.83;96226.13;4910429;29;20223;-71
2023/12/14 00:11:51;;;;;;;42.97;21.63;;;;;;;5.07;87.54;96207.44;4910911;29;20213;-71
2023/12/14 00:14:18;;;;;;;40.20;21.17;;;;;;;5.14;87.12;96227.66;4909941;29;20771;-71
2023/12/14 00:16:45;;;;;;;46.37;22.87;;;;;;;4.94;86.10;96209.63;4910671;29;20198;-72
2023/12/14 00:19:12;;;;;;;51.37;23.27;;;;;;;4.95;86.35;96224.94;4910213;29;20226;-70
2023/12/14 00:21:39;;;;;;;41.97;21.60;;;;;;;4.75;87.11;96224.84;4910441;29;20211;-70
2023/12/14 00:24:06;;;;;;;40.57;19.87;;;;;;;4.69;88.05;96222.50;4910301;29;20239;-70
2023/12/14 00:26:33;;;;;;;48.57;22.63;;;;;;;4.71;88.60;96233.53;4910669;29;20641;-70
2023/12/14 00:29:00;;;;;;;43.33;22.73;;;;;;;4.75;89.02;96244.53;4910436;29;20298;-71
2023/12/14 00:31:28;;;;;;;45.77;20.57;;;;;;;4.84;88.05;96244.19;4909626;29;20218;-71
2023/12/14 00:33:55;;;;;;;44.27;22.30;;;;;;;4.88;87.71;96228.63;4910593;29;20211;-70
2023/12/14 00:36:22;;;;;;;44.43;19.13;;;;;;;4.91;86.56;96230.25;4909838;29;20302;-71
2023/12/14 00:38:49;;;;;;;42.00;19.97;;;;;;;4.92;86.33;96245.56;4910406;29;20258;-70
2023/12/14 00:41:16;;;;;;;40.83;21.67;;;;;;;4.89;87.26;96232.88;4910211;29;20286;-71
2023/12/14 00:43:44;;;;;;;45.57;20.03;;;;;;;4.75;86.80;96240.25;4910131;29;20247;-72
2023/12/14 00:46:11;;;;;;;36.97;19.97;;;;;;;4.61;86.31;96226.22;4910544;29;20200;-72
2023/12/14 00:48:38;;;;;;;38.87;20.77;;;;;;;4.48;87.05;96218.13;4909863;29;20207;-71
2023/12/14 00:51:05;;;;;;;42.43;19.23;;;;;;;4.54;87.18;96241.00;4910592;29;20237;-71
2023/12/14 00:53:32;;;;;;;40.93;20.43;;;;;;;4.65;86.53;96232.91;4909580;29;20290;-73
2023/12/14 00:55:59;;;;;;;40.10;20.90;;;;;;;4.72;85.14;96250.59;4910291;29;20202;-72
2023/12/14 00:58:27;;;;;;;37.93;19.30;;;;;;;4.62;85.85;96249.25;4909937;29;20234;-70
2023/12/14 01:00:54;;;;;;;34.77;18.50;;;;;;;4.63;85.84;96242.41;4910182;29;20200;-71
2023/12/14 01:03:22;;;;;;;41.83;19.13;;;;;;;4.59;86.32;96249.38;4910055;29;20231;-73
2023/12/14 01:05:49;;;;;;;38.37;19.80;;;;;;;4.57;85.92;96251.16;4909969;29;20630;-72
2023/12/14 01:08:16;;;;;;;39.80;20.27;;;;;;;4.44;86.38;96229.38;4910459;29;20566;-73
2023/12/14 01:10:44;;;;;;;39.60;19.03;;;;;;;4.42;86.20;96253.38;4908189;29;20210;-71
2023/12/14 01:13:11;;;;;;;42.73;17.43;;;;;;;4.24;87.21;96241.22;4911657;29;20217;-70
2023/12/14 01:15:38;;;;;;;35.63;17.57;;;;;;;4.18;86.94;96237.13;4913435;29;20195;-71
2023/12/14 01:18:05;;;;;;;36.97;17.70;;;;;;;4.05;88.57;96246.94;4913329;29;20245;-72
2023/12/14 01:20:32;;;;;;;31.67;16.07;;;;;;;4.13;88.27;96237.28;4913751;29;20277;-72
2023/12/14 01:22:59;;;;;;;35.60;16.90;;;;;;;4.17;88.49;96229.47;4913262;29;20211;-71
2023/12/14 01:25:26;;;;;;;34.70;16.23;;;;;;;3.96;89.75;96226.75;4913484;29;20762;-71
2023/12/14 01:27:54;;;;;;;33.17;15.60;;;;;;;3.92;90.40;96242.25;4912770;29;20343;-71
2023/12/14 01:30:21;;;;;;;35.67;16.10;;;;;;;4.01;90.52;96235.13;4913507;29;20198;-70
2023/12/14 01:32:48;;;;;;;29.83;13.63;;;;;;;3.92;91.14;96225.19;4912951;29;20674;-70
2023/12/14 01:35:15;;;;;;;37.93;17.03;;;;;;;4.20;91.66;96222.56;4913208;29;20235;-70
2023/12/14 01:37:42;;;;;;;35.13;15.67;;;;;;;4.09;92.18;96230.59;4912948;29;20210;-70
2023/12/14 01:40:10;;;;;;;41.13;18.37;;;;;;;4.14;92.58;96218.44;4912930;29;20227;-70
2023/12/14 01:42:37;;;;;;;35.63;16.37;;;;;;;4.28;91.86;96218.00;4913260;29;20209;-70
2023/12/14 01:45:05;;;;;;;41.13;18.70;;;;;;;4.31;92.40;96209.38;4912386;29;20226;-70
2023/12/14 01:47:32;;;;;;;40.10;18.40;;;;;;;4.37;91.63;96207.41;4913315;29;20312;-69
2023/12/14 01:49:59;;;;;;;35.60;18.37;;;;;;;4.42;91.87;96208.09;4912555;29;20198;-70
2023/12/14 01:52:27;;;;;;;37.90;17.97;;;;;;;4.40;91.12;96215.00;4912808;29;20281;-71
2023/12/14 01:54:55;;;;;;;38.47;17.80;;;;;;;4.49;90.95;96201.84;4912670;29;20502;-70
2023/12/14 01:57:22;;;;;;;36.93;17.67;;;;;;;4.48;90.32;96195.06;4912648;29;20237;-71
2023/12/14 01:59:49;;;;;;;35.40;16.73;;;;;;;4.68;90.32;96202.88;4912840;29;20261;-71
2023/12/14 02:02:16;;;;;;;37.83;16.07;;;;;;;4.81;88.70;96198.97;4912165;29;20718;-70
2023/12/14 02:04:43;;;;;;;29.47;15.43;;;;;;;4.90;88.42;96197.81;4913126;29;20202;-72
2023/12/14 02:07:11;;;;;;;32.53;16.07;;;;;;;4.85;88.03;96194.56;4912467;29;20209;-72
2023/12/14 02:09:38;;;;;;;32.50;16.37;;;;;;;4.84;87.88;96198.03;4895826;29;20195;-72
2023/12/14 02:12:05;;;;;;;32.90;15.10;;;;;;;4.76;88.06;96190.59;4912370;29;20191;-70
2023/12/14 02:14:33;;;;;;;32.83;14.37;;;;;;;4.69;88.33;96199.44;4912367;29;20747;-70
2023/12/14 02:17:00;;;;;;;29.90;14.30;;;;;;;4.63;88.49;96189.41;4912487;29;20703;-70
2023/12/14 02:19:27;;;;;;;31.87;14.10;;;;;;;4.65;87.96;96197.88;4911818;29;20230;-71
2023/12/14 02:21:55;;;;;;;27.50;13.63;;;;;;;4.52;88.59;96191.50;4913127;29;20302;-73
2023/12/14 02:24:22;;;;;;;25.53;12.57;;;;;;;4.39;88.83;96187.69;4911189;29;20233;-71
2023/12/14 02:26:49;;;;;;;26.27;13.63;;;;;;;4.33;88.68;96171.72;4912597;29;20210;-70
2023/12/14 02:29:30;;;;;;;33.37;13.77;;;;;;;4.60;88.55;96188.66;4910637;29;20239;-71
2023/12/14 02:31:57;;;;;;;34.03;14.97;;;;;;;4.33;88.83;96180.22;4912019;29;20290;-70
2023/12/14 02:34:25;;;;;;;25.67;12.90;;;;;;;4.10;89.45;96193.00;4912142;29;20297;-69
2023/12/14 02:36:52;;;;;;;32.47;14.23;;;;;;;4.16;89.25;96187.69;4911736;29;20211;-70
2023/12/14 02:39:19;;;;;;;23.37;12.07;;;;;;;4.16;89.59;96182.56;4912251;29;20746;-70
2023/12/14 02:41:46;;;;;;;27.87;12.83;;;;;;;4.27;89.95;96175.31;4894760;29;20226;-71
2023/12/14 02:44:13;;;;;;;29.77;13.47;;;;;;;4.22;89.72;96171.25;4912211;29;20735;-71
2023/12/14 02:46:41;;;;;;;26.90;12.87;;;;;;;3.84;89.73;96131.56;4911907;29;20215;-71
2023/12/14 02:49:08;;;;;;;27.60;13.10;;;;;;;4.25;90.04;96187.34;4911960;29;20195;-70
2023/12/14 02:51:35;;;;;;;24.77;12.63;;;;;;;4.34;89.62;96161.41;4911780;29;20224;-70
2023/12/14 02:54:02;;;;;;;29.47;13.77;;;;;;;4.38;89.28;96188.59;4911320;29;20285;-72
2023/12/14 02:56:29;;;;;;;27.17;12.83;;;;;;;4.17;89.90;96191.91;4911900;29;20667;-73
2023/12/14 02:58:56;;;;;;;26.57;13.23;;;;;;;3.99;91.08;96177.16;4910934;29;20242;-72
2023/12/14 03:01:24;;;;;;;30.60;14.07;;;;;;;4.12;91.26;96191.22;4911813;29;20901;-71
2023/12/14 03:03:51;;;;;;;30.67;14.40;;;;;;;4.13;91.50;96195.44;4910995;29;20725;-69
2023/12/14 03:06:18;;;;;;;30.03;13.57;;;;;;;3.95;92.16;96185.84;4911391;29;20186;-70
2023/12/14 03:08:45;;;;;;;28.23;12.57;;;;;;;3.96;92.91;96183.22;4911134;29;20186;-70
2023/12/14 03:11:22;;;;;;;29.30;13.17;;;;;;;3.77;93.24;96148.88;4911017;29;20216;-71
2023/12/14 03:13:49;;;;;;;29.30;12.30;;;;;;;4.07;92.69;96193.09;4911433;29;20657;-71
2023/12/14 03:16:17;;;;;;;27.07;11.77;;;;;;;3.97;93.46;96151.59;4910530;29;20686;-71
2023/12/14 03:18:44;;;;;;;32.43;13.20;;;;;;;4.32;92.86;96191.38;4894539;29;20654;-72
2023/12/14 03:21:11;;;;;;;25.60;11.53;;;;;;;4.17;92.93;96173.97;4910745;29;20215;-71
2023/12/14 03:23:38;;;;;;;30.83;12.30;;;;;;;4.29;93.26;96188.91;4910675;29;20296;-71
2023/12/14 03:26:05;;;;;;;26.23;11.27;;;;;;;4.42;93.71;96189.31;4911208;29;20206;-72
2023/12/14 03:28:32;;;;;;;27.63;11.50;;;;;;;4.47;94.40;96192.56;4910740;29;20210;-70
2023/12/14 03:31:00;;;;;;;28.57;12.80;;;;;;;4.65;94.44;96185.03;4911245;29;20194;-71
2023/12/14 03:33:27;;;;;;;26.83;12.73;;;;;;;4.76;93.50;96200.06;4910573;29;20210;-71
2023/12/14 03:35:54;;;;;;;33.70;14.90;;;;;;;4.91;93.29;96200.31;4910371;29;20215;-72
2023/12/14 03:38:22;;;;;;;35.37;14.87;;;;;;;4.94;92.17;96192.50;4910451;29;20226;-71
2023/12/14 03:40:49;;;;;;;34.33;14.57;;;;;;;4.95;92.36;96175.38;4910781;29;20758;-71
2023/12/14 03:43:16;;;;;;;27.07;13.27;;;;;;;4.95;92.55;96176.22;4910554;29;20287;-72
2023/12/14 03:45:43;;;;;;;29.47;13.53;;;;;;;5.13;91.74;96189.25;4909216;29;20238;-70
2023/12/14 03:48:11;;;;;;;31.27;12.27;;;;;;;5.15;91.40;96187.47;4910798;29;20290;-70
2023/12/14 03:50:38;;;;;;;30.03;14.17;;;;;;;5.19;91.64;96181.31;4908913;29;20277;-70
2023/12/14 03:53:05;;;;;;;27.67;13.70;;;;;;;5.22;91.11;96194.84;4893867;29;20625;-71
2023/12/14 03:55:33;;;;;;;28.23;12.80;;;;;;;5.24;90.96;96192.22;4910566;29;20188;-71
2023/12/14 03:58:00;;;;;;;32.27;14.47;;;;;;;5.19;90.14;96195.00;4911060;29;20596;-71
2023/12/14 04:00:27;;;;;;;28.40;13.53;;;;;;;5.20;91.25;96191.50;4878250;29;20240;-71
2023/12/14 04:02:54;;;;;;;29.43;13.70;;;;;;;5.15;90.23;96190.88;4910361;29;20228;-70
2023/12/14 04:05:22;;;;;;;28.90;13.30;;;;;;;5.19;90.06;96189.84;4910900;29;20202;-73
2023/12/14 04:07:49;;;;;;;33.13;15.17;;;;;;;5.26;90.40;96193.00;4910437;29;20650;-72
2023/12/14 04:10:16;;;;;;;24.17;12.93;;;;;;;5.26;89.65;96188.72;4911165;29;20216;-72
2023/12/14 04:12:44;;;;;;;31.80;14.53;;;;;;;4.90;89.84;96138.81;4910154;29;20601;-72
2023/12/14 04:15:11;;;;;;;32.97;15.03;;;;;;;5.14;89.02;96176.34;4910718;29;20207;-71
2023/12/14 04:17:38;;;;;;;33.20;15.17;;;;;;;5.04;88.04;96192.16;4894321;29;20234;-72
2023/12/14 04:20:06;;;;;;;32.40;15.30;;;;;;;4.95;88.99;96194.16;4891479;29;20264;-71
2023/12/14 04:22:33;;;;;;;30.27;14.50;;;;;;;4.83;88.25;96173.25;4891563;29;20210;-70
2023/12/14 04:25:01;;;;;;;34.53;16.03;;;;;;;4.41;88.42;96111.56;4891372;29;20758;-71
2023/12/14 04:27:30;;;;;;;30.63;15.43;;;;;;;4.79;88.96;96179.41;4890745;29;20210;-70
2023/12/14 04:29:58;;;;;;;31.50;16.40;;;;;;;4.82;88.97;96189.56;4891313;29;20227;-71
2023/12/14 04:32:46;;;;;;;36.27;16.17;;;;;;;4.88;89.50;96208.09;4890435;29;20300;-70
2023/12/14 04:35:27;;;;;;;29.40;14.47;;;;;;;4.74;88.19;96191.56;4891131;29;20303;-73
2023/12/14 04:37:54;;;;;;;37.93;17.43;;;;;;;4.53;88.89;96193.19;4892496;29;20235;-71
2023/12/14 04:40:21;;;;;;;28.30;13.57;;;;;;;4.42;89.74;96179.06;4891712;29;20738;-70
2023/12/14 04:42:48;;;;;;;28.90;13.63;;;;;;;4.33;90.93;96172.53;4903010;29;20196;-70
2023/12/14 04:45:16;;;;;;;37.43;15.67;;;;;;;4.33;90.92;96189.66;4893121;29;20708;-71
2023/12/14 04:47:43;;;;;;;28.70;13.20;;;;;;;4.29;91.65;96185.50;4910474;29;20282;-71
2023/12/14 04:50:11;;;;;;;32.17;14.87;;;;;;;4.46;90.92;96201.97;4913428;29;20285;-72
2023/12/14 04:52:41;;;;;;;44.77;18.00;;;;;;;4.39;90.99;96203.06;4913961;29;20597;-71
2023/12/14 04:55:09;;;;;;;37.40;18.00;;;;;;;4.60;89.55;96188.66;4913315;29;20281;-69
2023/12/14 04:57:36;;;;;;;38.20;19.83;;;;;;;4.42;89.55;96187.59;4913885;29;20286;-72
2023/12/14 05:00:09;;;;;;;52.30;23.63;;;;;;;4.47;90.04;96192.56;4912201;29;20221;-72
2023/12/14 05:02:40;;;;;;;53.87;22.43;;;;;;;4.71;90.17;96207.06;4898550;29;20241;-71
2023/12/14 05:05:12;;;;;;;45.43;20.30;;;;;;;4.79;89.49;96199.91;4874804;29;20201;-70
2023/12/14 05:07:39;;;;;;;38.87;19.10;;;;;;;4.64;88.93;96180.81;4874982;29;20204;-70
2023/12/14 05:10:08;;;;;;;42.33;18.43;;;;;;;4.58;89.28;96193.84;4875897;29;20659;-72
2023/12/14 05:12:38;;;;;;;44.90;22.93;;;;;;;4.63;90.06;96198.81;4876260;29;20202;-71
2023/12/14 05:15:06;;;;;;;52.77;23.50;;;;;;;4.72;89.58;96180.50;4875773;29;20280;-71
2023/12/14 05:17:36;;;;;;;69.13;29.30;;;;;;;4.80;89.41;96179.34;4875363;29;20232;-71
2023/12/14 05:20:08;;;;;;;59.40;26.67;;;;;;;4.78;88.90;96168.31;4876040;29;20241;-72
2023/12/14 05:22:35;;;;;;;55.23;25.17;;;;;;;4.90;89.21;96174.72;4875099;29;20217;-70
2023/12/14 05:25:04;;;;;;;58.73;27.03;;;;;;;4.99;89.18;96176.09;4875684;29;20777;-71
2023/12/14 05:27:31;;;;;;;54.63;27.73;;;;;;;4.82;88.13;96169.84;4874647;29;20423;-72
2023/12/14 05:30:02;;;;;;;54.27;24.93;;;;;;;4.85;88.13;96169.75;4875396;29;20196;-72
2023/12/14 05:32:31;;;;;;;48.77;23.07;;;;;;;4.70;89.37;96175.44;4887373;29;20205;-72
2023/12/14 05:35:00;;;;;;;50.20;23.37;;;;;;;4.74;89.08;96177.00;4874689;29;20248;-71
2023/12/14 05:37:30;;;;;;;55.33;22.33;;;;;;;4.82;89.36;96169.03;4875395;29;20740;-72
2023/12/14 05:39:57;;;;;;;41.90;20.23;;;;;;;4.64;89.42;96167.13;4872938;29;20300;-72
2023/12/14 05:42:24;;;;;;;47.20;20.70;;;;;;;4.69;90.25;96171.22;4875294;29;20228;-71
2023/12/14 05:44:51;;;;;;;39.43;18.30;;;;;;;4.72;89.42;96177.94;4875087;29;20669;-70
2023/12/14 05:47:18;;;;;;;40.03;17.67;;;;;;;4.76;89.94;96192.34;4875158;29;20204;-71
2023/12/14 05:49:45;;;;;;;31.43;15.83;;;;;;;4.53;90.09;96167.56;4875050;29;20199;-73
2023/12/14 05:52:13;;;;;;;37.60;14.77;;;;;;;4.59;89.01;96177.59;4874379;29;20316;-69
2023/12/14 05:54:41;;;;;;;31.17;14.70;;;;;;;4.46;90.69;96173.78;4875502;29;20201;-72
2023/12/14 05:57:08;;;;;;;33.20;15.63;;;;;;;4.82;90.08;96192.13;4874258;29;20191;-73
2023/12/14 05:59:35;;;;;;;41.33;18.83;;;;;;;4.76;89.09;96188.03;4873996;29;20235;-72
2023/12/14 06:02:02;;;;;;;40.67;16.17;;;;;;;4.75;88.51;96188.94;4879476;29;20306;-73
2023/12/14 06:04:29;;;;;;;45.37;18.10;;;;;;;4.67;89.46;96188.41;4912332;29;20205;-73
2023/12/14 06:06:56;;;;;;;37.27;16.80;;;;;;;4.70;88.95;96185.69;4912665;29;20207;-74
2023/12/14 06:09:33;;;;;;;33.60;15.73;;;;;;;4.66;89.06;96196.97;4912296;29;20663;-71
2023/12/14 06:12:02;;;;;;;33.63;15.37;;;;;;;4.69;89.24;96171.22;4912406;29;20210;-71
2023/12/14 06:14:29;;;;;;;33.70;16.27;;;;;;;4.70;89.85;96195.13;4911654;29;20338;-70
2023/12/14 06:16:57;;;;;;;35.07;17.00;;;;;;;4.63;89.27;96198.81;4912591;29;20306;-72
2023/12/14 06:19:25;;;;;;;36.40;16.60;;;;;;;4.62;90.81;96190.28;4911743;29;20239;-70
2023/12/14 06:21:52;;;;;;;37.17;16.97;;;;;;;4.64;91.48;96190.22;4911829;29;20194;-71
2023/12/14 06:24:20;;;;;;;37.50;17.13;;;;;;;4.78;90.61;96193.94;4911434;29;20202;-72
2023/12/14 06:26:48;;;;;;;35.83;16.80;;;;;;;4.91;89.69;96208.00;4911613;29;20227;-73
2023/12/14 06:29:15;;;;;;;34.07;15.33;;;;;;;4.86;91.04;96197.06;4912111;29;20199;-71
2023/12/14 06:31:45;;;;;;;36.87;17.97;;;;;;;4.95;90.59;96177.94;4911497;29;20204;-71
2023/12/14 06:34:12;;;;;;;50.90;21.37;;;;;;;5.08;90.36;96209.09;4911764;29;20212;-72
2023/12/14 06:36:44;;;;;;;45.77;21.20;;;;;;;5.03;89.62;96214.41;4911476;29;20290;-71
2023/12/14 06:39:11;;;;;;;47.03;19.77;;;;;;;5.13;90.19;96220.84;4910367;29;20268;-72
2023/12/14 06:41:39;;;;;;;44.43;19.07;;;;;;;5.37;88.91;96216.53;4912346;29;20204;-70
2023/12/14 06:44:08;;;;;;;33.97;17.67;;;;;;;5.20;88.95;96206.06;4911560;29;20206;-69
2023/12/14 06:46:36;;;;;;;37.30;17.93;;;;;;;5.19;89.13;96201.84;4910978;29;20269;-71
2023/12/14 06:49:03;;;;;;;41.03;17.30;;;;;;;5.34;88.42;96212.34;4912050;29;20233;-71
2023/12/14 06:51:30;;;;;;;42.80;16.77;;;;;;;5.28;88.51;96193.78;4913088;29;20201;-71
2023/12/14 06:53:58;;;;;;;39.50;17.27;;;;;;;5.29;88.59;96226.25;4912621;29;20759;-71
2023/12/14 06:56:25;;;;;;;38.73;17.03;;;;;;;5.22;88.95;96229.94;4911819;29;20657;-71
2023/12/14 06:58:52;;;;;;;38.90;17.27;;;;;;;5.24;89.66;96248.69;4911121;29;20282;-69
2023/12/14 07:01:19;;;;;;;39.47;18.60;;;;;;;5.18;88.82;96236.94;4910996;29;20196;-73
2023/12/14 07:03:47;;;;;;;42.70;18.30;;;;;;;5.11;89.98;96220.06;4911241;29;20282;-72
2023/12/14 07:06:17;;;;;;;40.07;19.23;;;;;;;5.30;89.74;96227.91;4893679;29;20192;-72
2023/12/14 07:08:44;;;;;;;38.83;16.57;;;;;;;4.88;88.54;96169.63;4911639;29;20672;-72
2023/12/14 07:11:12;;;;;;;35.50;16.80;;;;;;;5.30;88.69;96222.78;4910713;29;20274;-72
2023/12/14 07:13:40;;;;;;;38.13;18.17;;;;;;;5.55;88.67;96233.78;4910929;29;20206;-73
2023/12/14 07:16:09;;;;;;;33.73;16.17;;;;;;;5.56;87.12;96226.00;4910718;29;20257;-70
2023/12/14 07:18:37;;;;;;;29.47;14.63;;;;;;;5.29;88.08;96206.56;4910995;29;20223;-71
2023/12/14 07:21:05;;;;;;;39.37;17.67;;;;;;;5.42;87.61;96243.69;4910861;29;20244;-71
2023/12/14 07:23:33;;;;;;;40.33;18.67;;;;;;;5.15;88.31;96252.44;4910231;29;20206;-71
2023/12/14 07:26:00;;;;;;;33.30;16.50;;;;;;;4.99;89.15;96229.97;4911082;29;20247;-72
2023/12/14 07:28:31;;;;;;;33.17;14.27;;;;;;;5.05;89.58;96253.66;4910517;29;20210;-69
2023/12/14 07:30:58;;;;;;;39.90;17.73;;;;;;;4.97;88.76;96236.91;4910774;29;20253;-70
2023/12/14 07:33:26;;;;;;;34.93;16.33;;;;;;;5.05;88.79;96253.66;4910415;29;20205;-70
2023/12/14 07:35:53;;;;;;;36.10;16.83;;;;;;;5.25;89.51;96263.19;4910607;29;20221;-70
2023/12/14 07:38:20;;;;;;;38.10;17.80;;;;;;;5.29;89.80;96254.50;4911092;29;20282;-70
2023/12/14 07:40:47;;;;;;;46.90;19.23;;;;;;;5.38;88.68;96223.34;4910075;29;20241;-71
2023/12/14 07:43:14;;;;;;;38.17;20.20;;;;;;;5.60;88.33;96247.28;4910428;29;20919;-71
2023/12/14 07:45:41;;;;;;;38.37;19.27;;;;;;;5.64;88.71;96244.56;4892854;29;20207;-71
2023/12/14 07:48:09;;;;;;;53.20;22.97;;;;;;;5.67;88.32;96251.28;4910444;29;20210;-72
2023/12/14 07:50:36;;;;;;;46.77;23.50;;;;;;;5.82;87.26;96258.38;4909574;29;20199;-70
2023/12/14 07:53:04;;;;;;;49.00;22.07;;;;;;;5.80;87.65;96229.34;4909612;29;20571;-72
2023/12/14 07:55:31;;;;;;;41.00;21.93;;;;;;;6.06;88.00;96252.28;4909722;29;20632;-72
2023/12/14 07:57:59;;;;;;;42.90;21.53;;;;;;;6.12;86.76;96225.53;4909215;29;20200;-70
2023/12/14 08:00:26;;;;;;;41.43;19.67;;;;;;;6.18;86.95;96251.78;4910513;29;20296;-70
2023/12/14 08:02:53;;;;;;;45.77;20.77;;;;;;;5.91;87.43;96211.81;4909456;29;20272;-69
2023/12/14 08:05:20;;;;;;;46.23;21.23;;;;;;;6.11;87.70;96216.97;4910096;29;20660;-73
2023/12/14 08:07:48;;;;;;;45.00;21.00;;;;;;;6.37;86.35;96226.13;4908609;29;20641;-72
2023/12/14 08:10:15;;;;;;;42.97;21.80;;;;;;;6.34;87.09;96198.84;4877589;29;20844;-72
2023/12/14 08:12:42;;;;;;;55.47;23.30;;;;;;;6.86;86.02;96243.69;4909869;29;20201;-71
2023/12/14 08:15:10;;;;;;;44.13;21.67;;;;;;;6.72;85.14;96222.06;4909580;29;20277;-71
2023/12/14 08:17:37;;;;;;;45.17;22.17;;;;;;;6.60;86.07;96226.00;4910463;29;20241;-72
2023/12/14 08:20:08;;;;;;;57.23;27.10;;;;;;;6.84;85.16;96247.28;4907460;29;20228;-71
2023/12/14 08:22:36;;;;;;;50.73;23.83;;;;;;;6.87;85.56;96241.97;4895203;29;20205;-70
2023/12/14 08:25:04;;;;;;;43.47;20.67;;;;;;;7.07;85.54;96250.47;4915714;29;20215;-71
2023/12/14 08:27:32;;;;;;;44.90;21.97;;;;;;;7.02;84.28;96246.44;4915426;29;20253;-74
2023/12/14 08:30:00;;;;;;;45.37;19.87;;;;;;;7.04;85.00;96260.09;4883583;29;20239;-72
2023/12/14 08:32:31;;;;;;;43.57;20.97;;;;;;;7.18;85.05;96258.56;4914620;29;20193;-71
2023/12/14 08:34:59;;;;;;;42.93;22.10;;;;;;;7.05;85.08;96244.56;4916259;29;20216;-72
2023/12/14 08:37:26;;;;;;;47.60;23.50;;;;;;;7.18;85.47;96243.13;4915529;29;20213;-73
2023/12/14 08:39:53;;;;;;;47.17;23.87;;;;;;;7.14;84.63;96245.91;4916101;29;20260;-72
2023/12/14 08:42:23;;;;;;;47.00;23.60;;;;;;;7.14;85.08;96251.88;4915639;29;20235;-71
2023/12/14 08:44:50;;;;;;;54.63;23.97;;;;;;;7.32;85.24;96269.06;4918187;29;20206;-71
2023/12/14 08:47:18;;;;;;;50.07;24.57;;;;;;;7.36;84.42;96278.34;4919262;29;20218;-73
2023/12/14 08:49:45;;;;;;;43.87;21.67;;;;;;;7.36;83.99;96267.19;4916026;29;20208;-72
2023/12/14 08:52:14;;;;;;;39.03;18.07;;;;;;;7.19;85.45;96278.25;4916360;29;20221;-71
2023/12/14 08:54:45;;;;;;;35.67;18.00;;;;;;;6.85;84.67;96200.88;4915277;29;20316;-72
2023/12/14 08:57:12;;;;;;;37.83;18.30;;;;;;;7.32;85.12;96251.06;4899101;29;20694;-72
2023/12/14 08:59:39;;;;;;;41.83;18.30;;;;;;;7.27;85.18;96241.88;4914121;29;20225;-70
2023/12/14 09:02:10;;;;;;;43.17;20.10;;;;;;;7.24;84.98;96278.88;4915515;29;20237;-72
2023/12/14 09:04:38;;;;;;;50.20;22.10;;;;;;;7.35;85.76;96279.25;4915846;29;20213;-71
2023/12/14 09:07:07;;;;;;;62.47;27.33;;;;;;;7.34;85.62;96266.44;4914394;29;20198;-70
2023/12/14 09:09:34;;;;;;;43.10;21.40;;;;;;;7.15;85.40;96206.38;4916233;29;20203;-71
2023/12/14 09:12:01;;;;;;;42.93;20.13;;;;;;;7.14;86.50;96238.19;4915215;29;20242;-70
2023/12/14 09:14:30;;;;;;;46.13;20.87;;;;;;;7.20;86.43;96218.13;4915841;29;20264;-71
2023/12/14 09:16:57;;;;;;;33.30;17.43;;;;;;;7.49;85.74;96252.84;4915989;29;20213;-71
2023/12/14 09:19:25;;;;;;;32.27;16.23;;;;;;;7.73;85.90;96240.59;4915835;29;20609;-71
2023/12/14 09:21:52;;;;;;;37.50;19.20;;;;;;;7.69;86.18;96249.34;4915777;29;20229;-71
2023/12/14 09:24:20;;;;;;;37.50;18.17;;;;;;;7.73;85.72;96236.25;4915442;29;20649;-69
2023/12/14 09:26:47;;;;;;;36.33;17.40;;;;;;;7.89;86.27;96234.59;4917493;29;20213;-69
2023/12/14 09:29:15;;;;;;;45.57;20.13;;;;;;;7.97;85.46;96227.34;4915937;29;20210;-70
2023/12/14 09:31:43;;;;;;;40.93;19.47;;;;;;;8.20;84.60;96214.16;4916390;29;20732;-72
2023/12/14 09:34:12;;;;;;;44.07;21.50;;;;;;;8.17;84.73;96218.63;4881505;29;20934;-71
2023/12/14 09:36:40;;;;;;;45.47;23.17;;;;;;;8.26;84.32;96218.22;4913081;29;20211;-71
2023/12/14 09:39:11;;;;;;;49.73;23.40;;;;;;;8.26;83.47;96209.63;4912399;29;20205;-71
2023/12/14 09:41:39;;;;;;;56.27;24.73;;;;;;;8.06;83.73;96165.00;4912784;29;20250;-71
2023/12/14 09:44:07;;;;;;;49.93;21.93;;;;;;;8.25;83.63;96206.22;4895433;29;20589;-73
2023/12/14 09:46:44;;;;;;;47.50;21.00;;;;;;;8.50;83.77;96206.66;4912050;29;20267;-73
2023/12/14 09:49:13;;;;;;;52.27;21.53;;;;;;;8.75;82.63;96214.81;4896362;29;20202;-72
2023/12/14 09:51:41;;;;;;;43.43;20.37;;;;;;;8.36;82.52;96164.41;4912252;29;20314;-73
2023/12/14 09:54:08;;;;;;;48.60;22.63;;;;;;;8.49;83.85;96210.13;4910812;29;20206;-72
2023/12/14 09:56:35;;;;;;;42.83;20.73;;;;;;;8.42;83.44;96171.84;4912442;29;20194;-70
2023/12/14 09:59:05;;;;;;;53.40;23.37;;;;;;;8.81;83.57;96218.81;4895115;29;20302;-70
2023/12/14 10:01:32;;;;;;;43.63;22.47;;;;;;;8.75;83.17;96194.16;4912186;29;20222;-72
2023/12/14 10:04:09;;;;;;;55.70;25.63;;;;;;;9.05;83.20;96211.53;4909997;29;20825;-72
2023/12/14 10:06:40;;;;;;;50.60;24.93;;;;;;;9.13;83.03;96199.88;4917173;29;20241;-72
2023/12/14 10:09:13;;;;;;;43.00;20.50;;;;;;;9.20;82.92;96210.72;4921060;29;20290;-72
2023/12/14 10:11:41;;;;;;;43.73;21.97;;;;;;;9.08;83.02;96199.28;4911765;29;20194;-70
2023/12/14 10:14:24;;;;;;;49.67;24.43;;;;;;;9.14;82.79;96186.06;4910576;29;20225;-70
2023/12/14 10:16:52;;;;;;;45.23;20.40;;;;;;;9.17;83.36;96191.03;4910432;29;20214;-73
2023/12/14 10:19:30;;;;;;;41.90;19.87;;;;;;;9.26;82.45;96164.72;4911582;29;20230;-72
2023/12/14 10:22:01;;;;;;;43.17;21.27;;;;;;;9.27;82.82;96166.41;4910206;29;20226;-73
2023/12/14 10:24:32;;;;;;;46.43;21.57;;;;;;;9.42;82.68;96183.63;4910733;29;20231;-73
2023/12/14 10:27:07;;;;;;;44.07;20.13;;;;;;;9.62;82.61;96173.00;4911099;29;20203;-72
2023/12/14 10:29:35;;;;;;;44.20;20.00;;;;;;;9.44;82.48;96152.53;4910920;29;20695;-72
2023/12/14 10:32:06;;;;;;;40.53;18.07;;;;;;;9.52;82.25;96168.47;4911692;29;20290;-72
2023/12/14 10:34:37;;;;;;;39.90;19.13;;;;;;;9.48;82.34;96139.34;4893465;29;20690;-71
2023/12/14 10:37:06;;;;;;;46.73;21.70;;;;;;;9.74;81.36;96151.66;4911305;29;20218;-70
2023/12/14 10:39:35;;;;;;;43.37;20.30;;;;;;;10.07;80.64;96155.81;4910701;29;20229;-71
2023/12/14 10:42:04;;;;;;;41.90;17.83;;;;;;;9.94;80.14;96141.91;4910730;29;20234;-73
2023/12/14 10:44:47;;;;;;;41.17;17.90;;;;;;;10.26;80.39;96157.28;4911020;29;20213;-73
2023/12/14 10:47:34;;;;;;;51.17;19.97;;;;;;;10.57;78.92;96159.72;4910766;29;20645;-72
2023/12/14 10:50:03;;;;;;;40.87;18.80;;;;;;;10.60;78.00;96122.47;4918181;29;20241;-72
2023/12/14 10:52:35;;;;;;;38.97;18.33;;;;;;;10.57;78.00;96139.00;4914629;29;20277;-71
2023/12/14 10:55:07;;;;;;;41.07;18.27;;;;;;;10.69;78.07;96163.34;4910888;29;20306;-72
2023/12/14 10:57:34;;;;;;;41.87;18.00;;;;;;;10.76;77.65;96143.91;4893981;29;20218;-73
2023/12/14 11:00:04;;;;;;;42.10;18.47;;;;;;;10.78;77.47;96152.41;4910083;29;20198;-71
2023/12/14 11:02:39;;;;;;;44.87;18.60;;;;;;;10.72;77.74;96146.78;4910938;29;20245;-72
2023/12/14 11:05:09;;;;;;;35.60;16.67;;;;;;;10.86;77.31;96142.41;4908709;29;20677;-72
2023/12/14 11:07:50;;;;;;;33.93;15.87;;;;;;;10.91;76.91;96158.53;4910518;29;20262;-72
2023/12/14 11:10:35;;;;;;;33.07;15.07;;;;;;;10.84;77.15;96149.44;4910652;29;20190;-70
2023/12/14 11:13:13;;;;;;;36.87;16.10;;;;;;;10.82;77.37;96138.34;4909994;29;20283;-70
2023/12/14 11:15:50;;;;;;;43.73;18.37;;;;;;;10.81;77.43;96146.22;4909082;29;20211;-69
2023/12/14 11:18:17;;;;;;;34.20;16.47;;;;;;;10.92;77.21;96143.81;4909950;29;20622;-69
2023/12/14 11:20:45;;;;;;;43.13;19.17;;;;;;;10.94;76.94;96152.31;4892859;29;20245;-70
2023/12/14 11:23:14;;;;;;;42.33;19.30;;;;;;;10.89;77.21;96147.41;4910371;29;20777;-70
2023/12/14 11:25:41;;;;;;;42.10;19.33;;;;;;;10.96;77.20;96160.84;4908626;29;20210;-69
2023/12/14 11:28:13;;;;;;;35.90;17.20;;;;;;;10.82;76.94;96140.94;4910437;29;20217;-72
2023/12/14 11:30:45;;;;;;;42.10;17.30;;;;;;;10.87;77.34;96131.16;4910852;29;20308;-72